Time;durP1;ratioP1;P1;durP2;ratioP2;P2;SDS_P1;SDS_P2;PMS_P1;PMS_P2;Temp;Humidity;BMP_temperature;BMP_pressure;BME280_temperature;BME280_humidity;BME280_pressure;Samples;Min_cycle;Max_cycle;Signal;HPM_P1;HPM_P2
2023/08/18 00:00:08;;;;;;;16.67;12.55;;;;;;;-146.27;95.03;81616.91;5026131;28;20090;-68
2023/08/18 00:02:34;;;;;;;16.88;12.57;;;;;;;-146.27;94.95;81608.88;5028651;28;20034;-68
2023/08/18 00:04:59;;;;;;;17.77;13.27;;;;;;;-146.27;95.09;81649.03;5027746;28;20116;-69
2023/08/18 00:07:25;;;;;;;14.50;11.77;;;;;;;-146.27;95.20;81618.91;5027775;28;20061;-70
2023/08/18 00:09:51;;;;;;;15.13;12.00;;;;;;;-146.27;94.99;81580.75;5026029;28;20508;-69
2023/08/18 00:12:16;;;;;;;18.45;12.88;;;;;;;-146.27;95.53;81592.78;5028582;28;20102;-68
2023/08/18 00:14:42;;;;;;;16.52;12.98;;;;;;;-146.27;95.23;81596.81;5024835;28;20442;-69
2023/08/18 00:17:09;;;;;;;22.88;13.43;;;;;;;-146.27;94.80;81602.84;5026064;28;20053;-69
2023/08/18 00:19:35;;;;;;;17.50;12.98;;;;;;;-146.27;95.01;81580.75;5028749;28;20025;-68
2023/08/18 00:22:00;;;;;;;15.80;12.50;;;;;;;-146.27;95.12;81594.81;5028685;28;20039;-68
2023/08/18 00:24:25;;;;;;;17.02;12.80;;;;;;;-146.27;94.84;81649.03;5027242;28;20116;-69
2023/08/18 00:26:51;;;;;;;14.00;12.18;;;;;;;-146.27;95.02;81624.94;5027170;28;20021;-69
2023/08/18 00:29:16;;;;;;;16.63;12.23;;;;;;;-146.27;95.25;81610.88;5029077;28;20028;-69
2023/08/18 00:31:41;;;;;;;16.52;12.18;;;;;;;-146.27;94.46;81604.84;5027038;28;20049;-68
2023/08/18 00:34:07;;;;;;;16.13;12.95;;;;;;;-146.27;94.91;81622.91;5028027;28;20501;-67
2023/08/18 00:36:32;;;;;;;15.27;12.02;;;;;;;-146.27;94.60;81588.78;5027330;28;20099;-69
2023/08/18 00:38:58;;;;;;;15.77;11.23;;;;;;;-146.27;94.27;81641.00;5026506;28;20039;-70
2023/08/18 00:41:26;;;;;;;16.58;12.02;;;;;;;-146.27;94.53;81649.03;5026331;28;20091;-69
2023/08/18 00:43:52;;;;;;;16.10;11.90;;;;;;;-146.27;95.02;81636.97;5027245;28;20095;-69
2023/08/18 00:46:19;;;;;;;14.18;10.82;;;;;;;-146.27;94.41;81630.97;5028988;28;20042;-70
2023/08/18 00:48:44;;;;;;;13.98;11.27;;;;;;;-146.27;94.43;81649.03;5026971;28;20061;-71
2023/08/18 00:51:11;;;;;;;15.15;11.45;;;;;;;-146.27;94.32;81655.06;5026888;28;20056;-70
2023/08/18 00:53:39;;;;;;;12.65;10.63;;;;;;;-146.27;93.93;81673.13;5026665;28;20108;-70
2023/08/18 00:56:06;;;;;;;15.10;11.73;;;;;;;-146.27;94.30;81624.94;5025589;28;20032;-70
2023/08/18 00:58:33;;;;;;;17.23;10.70;;;;;;;-146.27;93.84;81634.97;5026706;28;20022;-71
2023/08/18 01:00:59;;;;;;;14.23;10.68;;;;;;;-146.27;92.91;81628.94;5026000;28;20038;-70
2023/08/18 01:03:25;;;;;;;14.80;10.90;;;;;;;-146.27;93.32;81630.97;5028315;28;20839;-70
2023/08/18 01:05:50;;;;;;;15.77;10.45;;;;;;;-146.27;93.08;81610.88;5026546;28;20104;-70
2023/08/18 01:08:16;;;;;;;13.25;10.65;;;;;;;-146.27;93.41;81645.00;5027820;28;20108;-70
2023/08/18 01:11:05;;;;;;;13.10;10.32;;;;;;;-146.27;92.71;81645.00;5023488;28;20029;-70
2023/08/18 01:13:44;;;;;;;18.20;9.70;;;;;;;-146.27;92.26;81641.00;5019317;28;20034;-70
2023/08/18 01:16:20;;;;;;;14.57;9.85;;;;;;;-146.27;92.44;81655.06;5026385;28;20085;-71
2023/08/18 01:18:46;;;;;;;11.77;9.48;;;;;;;-146.27;92.20;81641.00;5027643;28;20040;-68
2023/08/18 01:21:13;;;;;;;13.93;10.20;;;;;;;-146.27;91.97;81645.00;5028453;28;20108;-70
2023/08/18 01:23:40;;;;;;;15.90;10.75;;;;;;;-146.27;91.96;81639.00;5024709;28;20030;-70
2023/08/18 01:26:05;;;;;;;18.08;10.10;;;;;;;-146.27;91.79;81657.06;5027542;28;20100;-70
2023/08/18 01:28:32;;;;;;;12.43;9.88;;;;;;;-146.27;91.61;81630.97;5027943;28;20033;-70
2023/08/18 01:31:03;;;;;;;11.90;9.60;;;;;;;-146.27;91.27;81634.97;5028267;28;20053;-70
2023/08/18 01:33:37;;;;;;;13.75;9.50;;;;;;;-146.27;91.43;81675.16;5027684;28;20460;-70
2023/08/18 01:36:11;;;;;;;11.15;9.40;;;;;;;-146.27;90.91;81681.16;5028422;28;20362;-70
2023/08/18 01:38:38;;;;;;;12.07;8.45;;;;;;;-146.27;90.73;81665.09;5029526;28;20052;-70
2023/08/18 01:41:05;;;;;;;10.02;8.77;;;;;;;-146.27;90.48;81641.00;5029965;28;20021;-70
2023/08/18 01:43:34;;;;;;;11.98;9.18;;;;;;;-146.27;90.61;81645.00;5031036;28;20034;-71
2023/08/18 01:46:00;;;;;;;11.23;8.80;;;;;;;-146.27;90.67;81711.28;5031455;28;20112;-71
2023/08/18 01:48:26;;;;;;;11.02;9.25;;;;;;;-146.27;90.91;81709.28;5047505;28;20036;-70
2023/08/18 01:50:51;;;;;;;12.57;9.90;;;;;;;-146.27;91.11;81701.25;5030776;28;20017;-71
2023/08/18 01:53:17;;;;;;;13.50;9.18;;;;;;;-146.27;90.54;81709.28;5030035;28;20100;-71
2023/08/18 01:55:43;;;;;;;10.35;9.15;;;;;;;-146.27;90.52;81711.28;5030470;28;20389;-70
2023/08/18 01:58:08;;;;;;;11.77;9.07;;;;;;;-146.27;91.07;81693.22;5030418;28;20041;-70
2023/08/18 02:00:34;;;;;;;12.00;9.05;;;;;;;-146.27;91.20;81733.38;5029471;28;20040;-70
2023/08/18 02:02:59;;;;;;;11.68;9.25;;;;;;;-146.27;91.10;81751.47;5029869;28;20353;-70
2023/08/18 02:05:25;;;;;;;13.20;9.27;;;;;;;-146.27;90.98;81761.50;5032114;28;20034;-71
2023/08/18 02:07:50;;;;;;;13.23;9.50;;;;;;;-146.27;91.51;81745.44;5029824;28;20053;-70
2023/08/18 02:10:15;;;;;;;11.75;8.95;;;;;;;-146.27;91.30;81765.53;5030818;28;20026;-71
2023/08/18 02:12:41;;;;;;;11.00;8.88;;;;;;;-146.27;91.88;81765.53;5029668;28;20037;-69
2023/08/18 02:15:07;;;;;;;12.05;9.65;;;;;;;-146.27;91.53;81767.53;5029508;28;20520;-70
2023/08/18 02:17:32;;;;;;;14.13;9.65;;;;;;;-146.27;91.82;81777.56;5030914;28;20037;-70
2023/08/18 02:19:58;;;;;;;12.45;9.75;;;;;;;-146.27;92.06;81761.50;5031211;28;20060;-69
2023/08/18 02:22:25;;;;;;;11.68;8.95;;;;;;;-146.27;92.27;81789.63;5045756;28;20401;-70
2023/08/18 02:24:51;;;;;;;10.52;8.65;;;;;;;-146.27;92.24;81749.47;5041932;28;20382;-69
2023/08/18 02:27:17;;;;;;;13.90;10.18;;;;;;;-146.27;92.24;81781.59;5025912;28;20063;-70
2023/08/18 02:29:42;;;;;;;12.85;10.15;;;;;;;-146.27;92.44;81723.34;5031778;28;20048;-70
2023/08/18 02:32:07;;;;;;;14.45;9.75;;;;;;;-146.27;92.71;81817.75;5030724;28;20087;-70
2023/08/18 02:34:33;;;;;;;13.00;9.70;;;;;;;-146.27;93.17;81805.69;5030533;28;20036;-70
2023/08/18 02:36:58;;;;;;;13.60;9.95;;;;;;;-146.27;92.96;81813.72;5031671;28;20029;-71
2023/08/18 02:39:23;;;;;;;13.15;9.57;;;;;;;-146.27;93.55;81813.72;5031071;28;20056;-70
2023/08/18 02:41:51;;;;;;;13.80;10.13;;;;;;;-146.27;93.84;81823.78;5029207;28;20061;-71
2023/08/18 02:44:17;;;;;;;14.00;10.57;;;;;;;-146.27;94.97;81809.72;5030105;28;20029;-70
2023/08/18 02:46:43;;;;;;;10.90;8.98;;;;;;;-146.27;94.53;81793.66;5030931;28;20080;-70
2023/08/18 02:49:08;;;;;;;13.05;9.35;;;;;;;-146.27;94.28;81835.81;5029985;28;20025;-70
2023/08/18 02:51:33;;;;;;;11.65;9.65;;;;;;;-146.27;94.74;81831.81;5031513;28;20126;-71
2023/08/18 02:53:58;;;;;;;14.00;9.90;;;;;;;-146.27;94.54;81845.88;5029463;28;20032;-70
2023/08/18 02:56:24;;;;;;;12.27;10.45;;;;;;;-146.27;93.97;81813.72;5030566;28;20496;-69
2023/08/18 02:58:49;;;;;;;15.30;10.40;;;;;;;-146.27;94.73;81801.69;5027714;28;20128;-70
2023/08/18 03:01:15;;;;;;;13.27;10.48;;;;;;;-146.27;94.25;81825.78;5027594;28;20017;-70
2023/08/18 03:03:40;;;;;;;15.27;10.18;;;;;;;-146.27;93.87;81857.91;5029302;28;20056;-70
2023/08/18 03:06:07;;;;;;;16.48;10.32;;;;;;;-146.27;94.17;81847.88;5029275;28;20478;-70
2023/08/18 03:08:35;;;;;;;20.48;10.85;;;;;;;-146.27;94.05;81821.75;5029595;28;20181;-71
2023/08/18 03:11:01;;;;;;;15.50;10.80;;;;;;;-146.27;94.19;81833.81;5028273;28;20114;-70
2023/08/18 03:13:27;;;;;;;13.48;10.07;;;;;;;-146.27;93.69;81831.81;5029990;28;20489;-70
2023/08/18 03:15:52;;;;;;;14.55;10.35;;;;;;;-146.27;93.95;81825.78;5031200;28;20074;-70
2023/08/18 03:18:18;;;;;;;14.60;11.27;;;;;;;-146.27;94.42;81857.91;5029403;28;20111;-70
2023/08/18 03:20:47;;;;;;;16.33;10.30;;;;;;;-146.27;94.44;81843.84;5030692;28;20025;-71
2023/08/18 03:23:17;;;;;;;17.13;10.73;;;;;;;-146.27;95.02;81871.97;5027681;28;20033;-70
2023/08/18 03:25:43;;;;;;;14.05;11.43;;;;;;;-146.27;95.12;81853.91;5020371;28;20497;-71
2023/08/18 03:28:10;;;;;;;14.35;10.88;;;;;;;-146.27;94.83;81884.03;5027912;28;20029;-69
2023/08/18 03:30:37;;;;;;;14.65;11.60;;;;;;;-146.27;94.86;81878.00;5029978;28;20513;-70
2023/08/18 03:33:03;;;;;;;14.93;11.25;;;;;;;-146.27;94.74;81867.97;5026916;28;20541;-70
2023/08/18 03:35:31;;;;;;;15.00;11.30;;;;;;;-146.27;94.52;81853.91;5030429;28;20104;-70
2023/08/18 03:37:57;;;;;;;16.98;10.18;;;;;;;-146.27;95.22;81936.25;5029949;28;20068;-70
2023/08/18 03:40:22;;;;;;;25.75;13.02;;;;;;;-146.27;95.11;81882.00;5029628;28;20021;-70
2023/08/18 03:42:47;;;;;;;12.45;10.38;;;;;;;-146.27;94.62;81892.06;5029687;28;20025;-70
2023/08/18 03:45:13;;;;;;;12.73;9.77;;;;;;;-146.27;93.95;81894.06;5027003;28;20028;-70
2023/08/18 03:47:39;;;;;;;15.00;10.38;;;;;;;-146.27;94.44;81890.06;5027174;28;20035;-70
2023/08/18 03:50:05;;;;;;;13.88;11.00;;;;;;;-146.27;94.65;81910.13;5030097;28;20035;-70
2023/08/18 03:52:30;;;;;;;13.55;10.20;;;;;;;-146.27;94.28;81918.16;5027359;28;20025;-71
2023/08/18 03:54:55;;;;;;;13.98;10.15;;;;;;;-146.27;94.71;81916.16;5027794;28;20025;-70
2023/08/18 03:57:21;;;;;;;14.38;10.68;;;;;;;-146.27;94.79;81918.16;5027014;28;20041;-70
2023/08/18 03:59:46;;;;;;;17.33;11.98;;;;;;;-146.27;94.66;81890.06;5030135;28;20021;-70
2023/08/18 04:02:11;;;;;;;13.63;10.30;;;;;;;-146.27;95.08;81942.28;5028020;28;20112;-70
2023/08/18 04:04:37;;;;;;;14.90;10.77;;;;;;;-146.27;95.25;81984.47;5028428;28;20873;-70
2023/08/18 04:07:02;;;;;;;15.80;10.60;;;;;;;-146.27;95.53;81962.34;5028551;28;20120;-70
2023/08/18 04:09:28;;;;;;;15.48;10.55;;;;;;;-146.27;95.55;81930.22;5026466;28;20033;-70
2023/08/18 04:11:53;;;;;;;15.52;11.30;;;;;;;-146.27;95.75;81958.34;5021797;28;20033;-71
2023/08/18 04:14:19;;;;;;;15.38;11.20;;;;;;;-146.27;96.06;81972.41;5014190;28;20034;-69
2023/08/18 04:16:45;;;;;;;14.20;10.70;;;;;;;-146.27;96.41;81942.28;5013710;28;20053;-70
2023/08/18 04:19:11;;;;;;;14.63;10.90;;;;;;;-146.27;96.23;81962.34;5028676;28;20108;-70
2023/08/18 04:21:36;;;;;;;15.45;10.95;;;;;;;-146.27;96.15;81934.25;5028971;28;20172;-70
2023/08/18 04:24:02;;;;;;;16.92;10.77;;;;;;;-146.27;95.86;81974.41;5028016;28;20060;-70
2023/08/18 04:26:31;;;;;;;13.50;11.02;;;;;;;-146.27;96.19;81964.38;5026201;28;20025;-69
2023/08/18 04:28:56;;;;;;;13.50;10.90;;;;;;;-146.27;96.50;81974.41;5027683;28;20021;-70
2023/08/18 04:31:22;;;;;;;14.30;9.77;;;;;;;-146.27;96.89;81972.41;5029560;28;20041;-70
2023/08/18 04:33:47;;;;;;;14.48;10.05;;;;;;;-146.27;95.90;81954.31;5028341;28;20104;-70
2023/08/18 04:36:13;;;;;;;11.75;8.75;;;;;;;-146.27;96.23;81978.44;5028101;28;20091;-70
2023/08/18 04:38:38;;;;;;;11.68;9.20;;;;;;;-146.27;96.25;81928.22;5026740;28;20472;-70
2023/08/18 04:41:04;;;;;;;13.65;9.45;;;;;;;-146.27;96.51;81970.41;5029223;28;20034;-70
2023/08/18 04:43:30;;;;;;;15.93;9.68;;;;;;;-146.27;96.49;81950.31;5028356;28;20028;-70
2023/08/18 04:45:57;;;;;;;13.57;9.38;;;;;;;-146.27;96.96;81950.31;5029367;28;20148;-70
2023/08/18 04:48:23;;;;;;;13.35;9.50;;;;;;;-146.27;96.43;81952.31;5028059;28;20053;-70
2023/08/18 04:50:49;;;;;;;14.05;9.07;;;;;;;-146.27;96.57;81958.34;5028519;28;20069;-71
2023/08/18 04:53:15;;;;;;;14.55;9.82;;;;;;;-146.27;96.51;81950.31;5027609;28;20017;-71
2023/08/18 04:55:41;;;;;;;15.18;9.02;;;;;;;-146.27;96.94;82006.53;5028393;28;20401;-72
2023/08/18 04:58:12;;;;;;;13.90;9.15;;;;;;;-146.27;96.57;81934.25;5023929;28;20017;-70
2023/08/18 05:00:43;;;;;;;14.45;9.90;;;;;;;-146.27;97.00;81902.09;5025402;28;20097;-71
2023/08/18 05:03:09;;;;;;;12.10;8.98;;;;;;;-146.27;96.71;81944.28;5025002;28;20017;-70
2023/08/18 05:05:38;;;;;;;14.52;9.02;;;;;;;-146.27;96.43;81906.13;5027711;28;20026;-71
2023/08/18 05:08:04;;;;;;;13.50;9.18;;;;;;;-146.27;96.57;81934.25;5024921;28;20056;-71
2023/08/18 05:10:30;;;;;;;11.48;8.40;;;;;;;-146.27;97.11;81948.31;5027001;28;20021;-70
2023/08/18 05:12:55;;;;;;;13.13;8.43;;;;;;;-146.27;97.02;81962.34;5026178;28;20053;-71
2023/08/18 05:15:22;;;;;;;9.23;7.57;;;;;;;-146.27;96.45;81956.34;5032929;28;20017;-71
2023/08/18 05:17:48;;;;;;;11.85;8.07;;;;;;;-146.27;96.38;81946.28;5031211;28;20124;-71
2023/08/18 05:20:13;;;;;;;12.02;8.10;;;;;;;-146.27;95.79;81950.31;5031352;28;20036;-71
2023/08/18 05:22:38;;;;;;;11.20;7.85;;;;;;;-146.27;96.05;82028.66;5029549;28;21361;-70
2023/08/18 05:25:04;;;;;;;10.93;7.63;;;;;;;-146.27;95.98;81978.44;5022403;28;20078;-67
2023/08/18 05:27:30;;;;;;;12.57;8.82;;;;;;;-146.27;95.67;82014.59;5026367;28;20028;-69
2023/08/18 05:29:57;;;;;;;13.45;8.00;;;;;;;-146.27;96.11;82030.66;5030925;28;20021;-69
2023/08/18 05:32:22;;;;;;;11.52;7.93;;;;;;;-146.27;96.09;81970.41;5027408;28;20424;-69
2023/08/18 05:34:53;;;;;;;11.88;8.80;;;;;;;-146.27;96.68;82004.53;5031496;28;20082;-70
2023/08/18 05:37:18;;;;;;;15.45;7.93;;;;;;;-146.27;96.25;81942.28;5021964;28;20029;-68
2023/08/18 05:39:43;;;;;;;15.18;9.27;;;;;;;-146.27;96.31;81970.41;5029169;28;20106;-68
2023/08/18 05:42:09;;;;;;;14.90;9.15;;;;;;;-146.27;96.12;81974.41;5023494;28;20029;-69
2023/08/18 05:44:34;;;;;;;13.25;8.82;;;;;;;-146.27;96.46;81962.34;5024466;28;20176;-70
2023/08/18 05:46:59;;;;;;;11.23;8.15;;;;;;;-146.27;96.61;81968.38;5028823;28;20556;-68
2023/08/18 05:49:25;;;;;;;16.10;8.48;;;;;;;-146.27;96.19;81942.28;5027161;28;20017;-72
2023/08/18 05:51:50;;;;;;;14.98;9.32;;;;;;;-146.27;96.22;81958.34;5024004;28;20024;-72
2023/08/18 05:54:16;;;;;;;11.60;8.18;;;;;;;-146.27;96.04;81952.31;5024475;28;20262;-72
2023/08/18 05:56:41;;;;;;;13.32;8.50;;;;;;;-146.27;96.14;81952.31;5021315;28;20021;-72
2023/08/18 05:59:07;;;;;;;19.67;9.13;;;;;;;-146.27;96.15;81855.91;5030295;28;20064;-74
2023/08/18 06:01:32;;;;;;;14.55;9.40;;;;;;;-146.27;96.21;81938.25;5026159;28;20392;-73
2023/08/18 06:03:57;;;;;;;10.43;8.32;;;;;;;-146.27;96.08;81974.41;5025512;28;20088;-72
2023/08/18 06:06:23;;;;;;;17.48;9.10;;;;;;;-146.27;96.36;81932.22;5029587;28;20029;-72
2023/08/18 06:08:48;;;;;;;12.40;8.45;;;;;;;-146.27;95.85;81962.34;5028746;28;20433;-72
2023/08/18 06:11:15;;;;;;;12.73;8.15;;;;;;;-146.27;96.35;81926.22;5031257;28;20107;-72
2023/08/18 06:13:40;;;;;;;15.85;8.32;;;;;;;-146.27;96.03;81900.09;5031448;28;20141;-70
2023/08/18 06:16:05;;;;;;;17.10;8.65;;;;;;;-146.27;95.71;81924.19;5030652;28;20100;-73
2023/08/18 06:18:32;;;;;;;13.80;8.60;;;;;;;-146.27;95.49;81869.97;5024630;28;20063;-73
2023/08/18 06:20:58;;;;;;;11.70;8.65;;;;;;;-146.27;95.37;81831.81;5030247;28;20033;-70
2023/08/18 06:23:23;;;;;;;13.27;8.45;;;;;;;-146.27;95.04;81857.91;5028686;28;20167;-72
2023/08/18 06:25:49;;;;;;;11.68;8.07;;;;;;;-146.27;94.21;81853.91;5029339;28;20040;-74
2023/08/18 06:28:14;;;;;;;11.77;8.35;;;;;;;-146.27;94.72;81809.72;5031036;28;20029;-73
2023/08/18 06:30:39;;;;;;;11.43;8.82;;;;;;;-146.27;94.40;81813.72;5030659;28;20123;-73
2023/08/18 06:33:05;;;;;;;17.15;8.25;;;;;;;-146.27;94.64;81779.59;5023812;28;20021;-73
2023/08/18 06:35:30;;;;;;;11.00;8.23;;;;;;;-146.27;94.78;81805.69;5028926;28;20029;-72
2023/08/18 06:37:56;;;;;;;13.23;8.70;;;;;;;-146.27;94.76;81807.69;5030600;28;20025;-74
2023/08/18 06:40:21;;;;;;;13.35;8.25;;;;;;;-146.27;94.52;81811.72;5025746;28;20053;-74
2023/08/18 06:42:48;;;;;;;13.48;8.75;;;;;;;-146.27;94.38;81815.72;5030577;28;20022;-74
2023/08/18 06:45:14;;;;;;;16.17;9.05;;;;;;;-146.27;94.55;81803.69;5031721;28;20025;-73
2023/08/18 06:47:40;;;;;;;14.43;9.07;;;;;;;-146.27;94.49;81779.59;5030030;28;20030;-72
2023/08/18 06:50:06;;;;;;;15.07;9.85;;;;;;;-146.27;94.33;81797.66;5026314;28;20033;-72
2023/08/18 06:52:33;;;;;;;13.80;9.35;;;;;;;-146.27;94.99;81787.63;5027898;28;20029;-73
2023/08/18 06:54:58;;;;;;;18.33;10.20;;;;;;;-146.27;94.44;81763.50;5031534;28;20493;-73
2023/08/18 06:57:25;;;;;;;15.75;9.40;;;;;;;-146.27;94.57;81785.59;5030610;28;20064;-75
2023/08/18 06:59:51;;;;;;;14.70;9.00;;;;;;;-146.27;95.29;81791.63;5028267;28;20519;-74
2023/08/18 07:02:17;;;;;;;13.95;9.82;;;;;;;-146.27;94.99;81789.63;5031636;28;20033;-75
2023/08/18 07:04:42;;;;;;;17.50;10.88;;;;;;;-146.27;94.70;81761.50;5030100;28;20405;-74
2023/08/18 07:07:07;;;;;;;16.83;10.13;;;;;;;-146.27;94.32;81777.56;5031953;28;20049;-74
2023/08/18 07:09:33;;;;;;;17.08;9.93;;;;;;;-146.27;94.69;81725.34;5030379;28;20029;-74
2023/08/18 07:11:59;;;;;;;15.27;10.27;;;;;;;-146.27;94.11;81737.41;5031385;28;20029;-74
2023/08/18 07:14:25;;;;;;;16.35;10.63;;;;;;;-146.27;93.49;81721.34;5031951;28;20078;-75
2023/08/18 07:16:50;;;;;;;14.73;10.07;;;;;;;-146.27;93.68;81689.19;5030322;28;20108;-74
2023/08/18 07:19:16;;;;;;;18.30;10.07;;;;;;;-146.27;94.00;81669.13;5030961;28;20032;-73
2023/08/18 07:21:41;;;;;;;16.00;10.63;;;;;;;-146.27;93.19;81673.13;5028567;28;20034;-72
2023/08/18 07:24:07;;;;;;;14.57;9.38;;;;;;;-146.27;93.14;81624.94;5030795;28;20021;-73
2023/08/18 07:26:33;;;;;;;16.70;9.95;;;;;;;-146.27;93.00;81649.03;5031639;28;20469;-74
2023/08/18 07:28:59;;;;;;;15.63;10.43;;;;;;;-146.27;92.44;81574.72;5029819;28;20091;-73
2023/08/18 07:31:24;;;;;;;16.35;9.90;;;;;;;-146.27;91.93;81639.00;5029714;28;20543;-72
2023/08/18 07:33:49;;;;;;;18.23;9.40;;;;;;;-146.27;91.71;81639.00;5031106;28;20024;-77
2023/08/18 07:36:14;;;;;;;13.85;9.32;;;;;;;-146.27;91.63;81618.91;5029880;28;20076;-78
2023/08/18 07:38:40;;;;;;;17.92;10.43;;;;;;;-146.27;91.70;81596.81;5029264;28;20029;-75
2023/08/18 07:41:05;;;;;;;14.88;10.30;;;;;;;-146.27;91.98;81590.78;5030899;28;20029;-73
2023/08/18 07:43:31;;;;;;;16.23;10.30;;;;;;;-146.27;91.41;81540.56;5030141;28;20031;-73
2023/08/18 07:45:57;;;;;;;18.77;10.50;;;;;;;-146.27;91.55;81578.75;5030919;28;20029;-75
2023/08/18 07:48:22;;;;;;;16.33;11.05;;;;;;;-146.27;91.45;81558.66;5029544;28;20025;-73
2023/08/18 07:50:48;;;;;;;15.52;10.15;;;;;;;-146.27;91.15;81540.56;5025979;28;20032;-73
2023/08/18 07:53:13;;;;;;;15.10;9.70;;;;;;;-146.27;91.26;81524.50;5019401;28;20029;-73
2023/08/18 07:55:38;;;;;;;16.17;10.10;;;;;;;-146.27;91.27;81500.41;5026437;28;20466;-72
2023/08/18 07:58:04;;;;;;;14.60;10.35;;;;;;;-146.27;91.52;81454.22;5029955;28;20027;-72
2023/08/18 08:00:30;;;;;;;15.93;12.18;;;;;;;-146.27;91.23;81476.31;5027504;28;20681;-74
2023/08/18 08:02:56;;;;;;;13.73;9.77;;;;;;;-146.27;90.79;81387.94;5027401;28;20061;-72
2023/08/18 08:05:22;;;;;;;14.48;10.23;;;;;;;-146.27;90.45;81355.81;5028572;28;20103;-73
2023/08/18 08:07:48;;;;;;;16.42;9.85;;;;;;;-146.27;90.06;81327.69;5028541;28;20057;-73
2023/08/18 08:10:14;;;;;;;14.90;10.38;;;;;;;-146.27;89.44;81313.63;5028214;28;20101;-73
2023/08/18 08:12:40;;;;;;;19.27;10.98;;;;;;;-146.27;89.93;81321.66;5014680;28;20029;-74
2023/08/18 08:15:08;;;;;;;15.43;11.18;;;;;;;-146.27;88.75;81283.50;5027385;28;20080;-73
2023/08/18 08:17:33;;;;;;;14.85;10.73;;;;;;;-146.27;88.97;81275.47;5027790;28;20029;-75
2023/08/18 08:20:21;;;;;;;16.35;10.23;;;;;;;-146.27;89.04;81221.25;5028947;28;20022;-70
2023/08/18 08:22:49;;;;;;;16.65;10.80;;;;;;;-146.27;87.67;81221.25;5027060;28;20031;-75
2023/08/18 08:25:16;;;;;;;19.90;11.13;;;;;;;-146.27;87.91;81120.84;5025915;28;20025;-73
2023/08/18 08:27:41;;;;;;;19.60;12.35;;;;;;;-146.27;87.35;81167.03;5021594;28;20053;-74
2023/08/18 08:30:09;;;;;;;16.17;11.40;;;;;;;-146.27;87.84;81092.72;5026994;28;20064;-74
2023/08/18 08:32:35;;;;;;;18.48;12.23;;;;;;;-146.27;86.92;81118.84;5027770;28;20035;-74
2023/08/18 08:35:00;;;;;;;15.48;10.88;;;;;;;-146.27;87.32;81098.75;5025431;28;20141;-73
2023/08/18 08:37:25;;;;;;;18.77;11.45;;;;;;;-146.27;87.05;81054.56;5025716;28;20481;-74
2023/08/18 08:39:51;;;;;;;22.20;11.52;;;;;;;-146.27;86.49;81006.38;5025754;28;20477;-72
2023/08/18 08:42:17;;;;;;;18.10;10.13;;;;;;;-146.27;86.36;80988.31;5028857;28;20026;-74
2023/08/18 08:44:42;;;;;;;13.90;9.93;;;;;;;-146.27;85.60;80948.16;5028590;28;20037;-74
2023/08/18 08:47:07;;;;;;;18.20;10.65;;;;;;;-146.27;84.26;80865.81;5014734;28;20115;-74
2023/08/18 08:49:35;;;;;;;19.10;11.07;;;;;;;-146.27;83.95;80914.00;5018913;28;20153;-73
2023/08/18 08:52:06;;;;;;;17.08;10.40;;;;;;;-146.27;83.63;80901.97;5029523;28;20128;-75
2023/08/18 08:54:36;;;;;;;14.73;10.68;;;;;;;-146.27;83.86;80845.75;5027119;28;20029;-75
2023/08/18 08:57:04;;;;;;;16.05;10.50;;;;;;;-146.27;84.31;80841.72;5027429;28;20575;-75
2023/08/18 08:59:30;;;;;;;15.45;10.80;;;;;;;-146.27;83.61;80785.50;5027700;28;20121;-74
2023/08/18 09:01:55;;;;;;;17.50;10.82;;;;;;;-146.27;82.94;80781.47;5027385;28;20100;-74
2023/08/18 09:04:22;;;;;;;16.85;11.73;;;;;;;-146.27;82.96;80781.47;5027136;28;20428;-73
2023/08/18 09:06:48;;;;;;;16.35;12.43;;;;;;;-146.27;81.88;80751.38;5026128;28;20109;-75
2023/08/18 09:09:14;;;;;;;16.98;11.18;;;;;;;-146.27;81.66;80753.38;5026514;28;20119;-74
2023/08/18 09:11:45;;;;;;;16.45;11.77;;;;;;;-146.27;82.27;80751.38;5026591;28;20418;-74
2023/08/18 09:14:10;;;;;;;19.38;12.65;;;;;;;-146.27;81.65;80765.41;5027455;28;20089;-73
2023/08/18 09:16:36;;;;;;;18.38;11.50;;;;;;;-146.27;81.59;80769.44;5027333;28;20459;-75
2023/08/18 09:19:02;;;;;;;16.85;12.07;;;;;;;-146.27;81.93;80721.25;5026373;28;20059;-74
2023/08/18 09:21:27;;;;;;;18.92;11.77;;;;;;;-146.27;82.96;80719.22;5027001;28;20079;-75
2023/08/18 09:23:56;;;;;;;18.85;11.82;;;;;;;-146.27;82.47;80771.44;5026732;28;20036;-75
2023/08/18 09:26:22;;;;;;;12.93;10.23;;;;;;;-146.27;82.93;80715.22;5027903;28;20184;-75
2023/08/18 09:28:48;;;;;;;21.00;12.55;;;;;;;-146.27;82.74;80729.28;5025586;28;20029;-74
2023/08/18 09:31:13;;;;;;;16.40;11.90;;;;;;;-146.27;82.47;80777.47;5024072;28;20371;-74
2023/08/18 09:33:38;;;;;;;18.67;11.77;;;;;;;-146.27;83.01;80757.38;5026275;28;20069;-75
2023/08/18 09:36:04;;;;;;;17.88;12.93;;;;;;;-146.27;83.06;80829.69;5029107;28;20084;-76
2023/08/18 09:38:40;;;;;;;17.92;12.60;;;;;;;-146.27;83.36;80749.34;5026788;28;20021;-75
2023/08/18 09:41:07;;;;;;;17.52;11.93;;;;;;;-146.27;83.67;80659.00;5026501;28;20056;-74
2023/08/18 09:43:33;;;;;;;17.38;12.65;;;;;;;-146.27;83.42;80681.09;5028526;28;20488;-76
2023/08/18 09:45:59;;;;;;;17.58;12.30;;;;;;;-146.27;82.00;80608.78;5027670;28;20112;-75
2023/08/18 09:48:26;;;;;;;19.98;12.82;;;;;;;-146.27;82.20;80594.75;5026415;28;20486;-74
2023/08/18 09:50:57;;;;;;;16.23;12.70;;;;;;;-146.27;82.32;80524.47;5024911;28;20097;-75
2023/08/18 09:53:29;;;;;;;20.80;13.27;;;;;;;-146.27;81.49;80516.44;5009227;28;20109;-74
2023/08/18 09:56:00;;;;;;;17.33;12.57;;;;;;;-146.27;80.63;80524.47;5022068;28;20029;-73
2023/08/18 09:58:39;;;;;;;17.77;12.57;;;;;;;-146.27;80.42;80508.41;5012255;28;20037;-74
2023/08/18 10:01:06;;;;;;;20.33;13.50;;;;;;;-146.27;80.36;80512.41;5032145;28;20032;-74
2023/08/18 10:03:37;;;;;;;19.70;12.98;;;;;;;-146.27;81.33;80476.28;5032197;28;20033;-75
2023/08/18 10:06:06;;;;;;;17.38;13.00;;;;;;;-146.27;81.03;80399.97;5031279;28;20412;-73
2023/08/18 10:08:32;;;;;;;14.73;9.63;;;;;;;-146.27;81.65;80307.63;5032258;28;20075;-73
2023/08/18 10:10:59;;;;;;;17.88;12.02;;;;;;;-146.27;80.40;80247.38;5028736;28;20025;-74
2023/08/18 10:13:25;;;;;;;19.48;13.25;;;;;;;-146.27;78.40;80271.47;5031138;28;20168;-74
2023/08/18 10:15:51;;;;;;;17.00;11.05;;;;;;;-146.27;78.62;80149.00;5032295;28;20049;-74
2023/08/18 10:18:17;;;;;;;19.85;13.23;;;;;;;-146.27;77.57;80191.16;5031815;28;20075;-74
2023/08/18 10:20:53;;;;;;;17.63;12.25;;;;;;;-146.27;78.48;80255.41;5030343;28;20029;-74
2023/08/18 10:23:22;;;;;;;17.63;13.73;;;;;;;-146.27;79.12;80285.53;5031995;28;20457;-72
2023/08/18 10:25:52;;;;;;;17.42;13.45;;;;;;;-146.27;78.82;80299.59;5031204;28;20087;-73
2023/08/18 10:28:19;;;;;;;19.65;14.13;;;;;;;-146.27;78.67;80293.56;5027643;28;20044;-74
2023/08/18 10:30:55;;;;;;;20.65;13.48;;;;;;;-146.27;78.35;80347.78;5031186;28;20029;-74
2023/08/18 10:33:31;;;;;;;23.67;15.07;;;;;;;-146.27;79.16;80408.00;5030757;28;20084;-74
2023/08/18 10:35:58;;;;;;;20.70;14.10;;;;;;;-146.27;80.76;80410.03;5031790;28;20022;-75
2023/08/18 10:38:30;;;;;;;23.63;14.25;;;;;;;-146.27;80.54;80418.06;5029747;28;20473;-74
2023/08/18 10:40:56;;;;;;;24.63;14.77;;;;;;;-146.27;81.00;80379.91;5030374;28;20021;-73
2023/08/18 10:43:25;;;;;;;20.73;13.80;;;;;;;-146.27;80.90;80406.00;5030723;28;20128;-73
2023/08/18 10:45:56;;;;;;;22.85;14.70;;;;;;;-146.27;79.96;80363.84;5029998;28;20102;-74
2023/08/18 10:48:22;;;;;;;23.55;15.63;;;;;;;-146.27;79.59;80353.81;5029973;28;20473;-72
2023/08/18 10:50:48;;;;;;;22.05;14.90;;;;;;;-146.27;79.62;80215.25;5028327;28;20095;-75
2023/08/18 10:53:15;;;;;;;20.55;14.07;;;;;;;-146.27;78.95;80217.28;5030159;28;20505;-73
2023/08/18 10:55:44;;;;;;;22.48;15.20;;;;;;;-146.27;78.30;80187.16;5031324;28;20022;-73
2023/08/18 10:58:09;;;;;;;24.77;15.93;;;;;;;-146.27;78.73;80255.41;5031312;28;20037;-72
2023/08/18 11:00:36;;;;;;;23.13;15.23;;;;;;;-146.27;79.03;80227.31;5029226;28;20049;-75